.
WxDataArchive / Data Records for 2014-06-02
2014-06-01 June 2014 2014-06-03

Data Records for Monday, 02 June 2014

Time	Temp	Chill	HIndex	Humid	Dewpt	 Wind 	HiWind	WindDir	Rain 	Barom
-----	----	-----	------	-----	-----	------	------	-------	-----	-----
00:00	78.3	78.3	79.9	58	62.3	1	5	270	0.00	29.977 
00:05	78.1	78.1	79.7	59	62.6	0	3	270	0.00	29.977 
00:10	77.9	77.9	79.5	59	62.4	0	3	270	0.00	29.977 
00:15	77.7	77.7	79.4	60	62.7	0	2	270	0.00	29.979 
00:20	77.6	77.6	79.3	61	63.1	0	3	270	0.00	29.979 
00:25	77.6	77.6	79.3	61	63.1	0	1	270	0.00	29.979 
00:30	77.4	77.4	79.2	62	63.3	0	3	270	0.00	29.974 
00:35	77.2	77.2	79.0	62	63.2	0	2	270	0.00	29.974 
00:40	77.0	77.0	78.8	63	63.4	0	2	315	0.00	29.974 
00:45	76.8	76.8	78.6	63	63.2	0	3	315	0.00	29.973 
00:50	76.8	76.8	78.6	63	63.2	0	1	315	0.00	29.973 
00:55	76.7	76.7	78.5	64	63.6	0	1	315	0.00	29.973 
01:00	76.7	76.7	78.5	64	63.6	0	1	315	0.00	29.976 
01:05	76.5	76.5	78.3	64	63.4	0	1	315	0.00	29.976 
01:10	76.3	76.3	78.1	65	63.6	0	1	315	0.00	29.976 
01:15	76.3	76.3	78.1	65	63.6	0	1	315	0.00	29.971 
01:20	76.1	76.1	77.9	66	63.9	0	1	315	0.00	29.971 
01:25	76.0	76.0	77.8	66	63.8	0	1	315	0.00	29.971 
01:30	76.0	76.0	77.8	67	64.2	0	1	315	0.00	29.970 
01:35	75.8	75.8	77.6	67	64.0	0	2	315	0.00	29.970 
01:40	75.8	75.8	77.6	67	64.0	0	0	---	0.00	29.970 
01:45	75.6	75.6	77.4	68	64.3	0	1	315	0.00	29.970 
01:50	75.6	75.6	77.4	68	64.3	0	1	315	0.00	29.970 
01:55	75.4	75.4	77.1	69	64.5	0	1	315	0.00	29.970 
02:00	75.3	75.3	77.0	69	64.4	0	1	315	0.00	29.971 
02:05	75.1	75.1	76.9	69	64.2	0	3	22	0.00	29.971 
02:10	74.9	74.9	74.9	70	64.4	0	4	248	0.00	29.971 
02:15	74.9	74.9	74.9	70	64.4	0	3	45	0.00	29.967 
02:20	74.7	74.7	74.7	71	64.7	0	1	45	0.00	29.967 
02:25	74.6	74.6	74.6	71	64.6	0	1	45	0.00	29.967 
02:30	74.4	74.4	74.4	71	64.4	0	1	45	0.00	29.969 
02:35	74.2	74.2	74.2	72	64.6	0	1	22	0.00	29.969 
02:40	74.0	74.0	74.0	72	64.4	0	1	22	0.00	29.969 
02:45	73.9	73.9	73.9	72	64.3	0	0	---	0.00	29.969 
02:50	73.9	73.9	73.9	73	64.7	0	3	45	0.00	29.969 
02:55	73.9	73.9	73.9	74	65.1	0	1	45	0.00	29.969 
03:00	73.7	73.7	73.7	74	64.9	0	2	45	0.00	29.969 
03:05	73.7	73.7	73.7	75	65.3	0	3	45	0.00	29.969 
03:10	73.5	73.5	73.5	75	65.1	0	2	45	0.00	29.969 
03:15	73.5	73.5	73.5	76	65.5	0	2	45	0.00	29.960 
03:20	73.3	73.3	73.3	76	65.3	0	2	45	0.00	29.960 
03:25	73.3	73.3	73.3	77	65.6	0	1	45	0.00	29.960 
03:30	73.2	73.2	73.2	77	65.5	0	1	45	0.00	29.960 
03:35	73.2	73.2	73.2	77	65.5	0	2	45	0.00	29.960 
03:40	73.0	73.0	73.0	78	65.7	0	2	45	0.00	29.960 
03:45	73.0	73.0	73.0	78	65.7	0	2	45	0.00	29.959 
03:50	72.8	72.8	72.8	78	65.5	0	1	45	0.00	29.959 
03:55	72.7	72.7	72.7	79	65.8	0	1	22	0.00	29.959 
04:00	72.5	72.5	72.5	79	65.6	0	2	338	0.00	29.965 
04:05	72.5	72.5	72.5	79	65.6	0	1	338	0.00	29.965 
04:10	72.3	72.3	72.3	80	65.8	0	1	338	0.00	29.965 
04:15	72.3	72.3	72.3	80	65.8	0	2	338	0.00	29.964 
04:20	72.1	72.1	72.1	80	65.6	0	3	315	0.00	29.964 
04:25	72.1	72.1	72.1	80	65.6	0	1	315	0.00	29.964 
04:30	72.1	72.1	72.1	80	65.6	0	1	315	0.00	29.966 
04:35	72.1	72.1	72.1	80	65.6	0	1	315	0.00	29.966 
04:40	72.0	72.0	72.0	80	65.5	0	1	315	0.00	29.966 
04:45	72.0	72.0	72.0	80	65.5	0	1	315	0.00	29.962 
04:50	72.0	72.0	72.0	80	65.5	0	2	315	0.00	29.962 
04:55	72.1	72.1	72.1	79	65.2	0	1	315	0.00	29.962 
05:00	72.1	72.1	72.1	79	65.2	0	1	315	0.00	29.955 
05:05	72.1	72.1	72.1	79	65.2	0	1	315	0.00	29.955 
05:10	72.1	72.1	72.1	79	65.2	0	2	315	0.00	29.955 
05:15	72.1	72.1	72.1	79	65.2	0	1	315	0.00	29.954 
05:20	72.3	72.3	72.3	79	65.4	0	3	315	0.00	29.954 
05:25	72.3	72.3	72.3	79	65.4	0	2	315	0.00	29.954 
05:30	72.3	72.3	72.3	79	65.4	0	1	315	0.00	29.954 
05:35	72.5	72.5	72.5	79	65.6	0	2	315	0.00	29.954 
05:40	72.5	72.5	72.5	79	65.6	0	3	315	0.00	29.954 
05:45	72.5	72.5	72.5	79	65.6	0	3	315	0.00	29.954 
05:50	72.5	72.5	72.5	79	65.6	1	3	315	0.00	29.954 
05:55	72.7	72.7	72.7	79	65.8	0	2	315	0.00	29.954 
06:00	72.7	72.7	72.7	79	65.8	0	3	315	0.00	29.953 
06:05	72.7	72.7	72.7	80	66.2	0	2	315	0.00	29.953 
06:10	72.7	72.7	72.7	80	66.2	0	3	315	0.00	29.953 
06:15	72.7	72.7	72.7	80	66.2	1	6	22	0.00	29.954 
06:20	72.7	72.7	72.7	80	66.2	0	2	22	0.00	29.954 
06:25	72.7	72.7	72.7	80	66.2	0	1	0	0.00	29.954 
06:30	72.7	72.7	72.7	80	66.2	1	4	270	0.00	29.955 
06:35	72.7	72.7	72.7	80	66.2	1	3	292	0.00	29.955 
06:40	72.8	72.8	72.8	80	66.3	0	1	270	0.00	29.955 
06:45	72.8	72.8	72.8	80	66.3	0	4	270	0.00	29.955 
06:50	72.8	72.8	72.8	80	66.3	1	3	292	0.00	29.955 
06:55	72.8	72.8	72.8	80	66.3	1	2	270	0.00	29.955 
07:00	72.8	72.8	72.8	80	66.3	0	3	248	0.00	29.957 
07:05	72.8	72.8	72.8	80	66.3	1	3	270	0.00	29.957 
07:10	73.0	73.0	73.0	80	66.5	1	2	270	0.00	29.957 
07:15	73.0	73.0	73.0	80	66.5	0	3	270	0.00	29.965 
07:20	73.0	73.0	73.0	80	66.5	1	5	270	0.00	29.965 
07:25	73.0	73.0	73.0	80	66.5	1	3	135	0.00	29.965 
07:30	73.2	73.2	73.2	80	66.6	1	3	270	0.00	29.966 
07:35	73.2	73.2	73.2	80	66.6	1	4	270	0.00	29.966 
07:40	73.3	73.3	73.3	79	66.4	1	4	270	0.00	29.966 
07:45	73.5	73.5	73.5	79	66.6	0	2	315	0.00	29.962 
07:50	73.5	73.5	73.5	79	66.6	1	4	270	0.00	29.962 
07:55	73.5	73.5	73.5	80	66.9	1	4	315	0.00	29.962 
08:00	73.5	73.5	73.5	80	66.9	1	4	248	0.00	29.963 
08:05	73.3	73.3	73.3	80	66.7	1	2	270	0.00	29.963 
08:10	73.3	73.3	73.3	80	66.7	1	3	270	0.00	29.963 
08:15	73.3	73.3	73.3	80	66.7	1	3	270	0.00	29.968 
08:20	73.3	73.3	73.3	80	66.7	1	5	270	0.00	29.968 
08:25	73.2	73.2	73.2	80	66.6	0	3	270	0.00	29.968 
08:30	73.3	73.3	73.3	81	67.1	1	3	112	0.00	29.970 
08:35	73.3	73.3	73.3	81	67.1	1	3	248	0.00	29.970 
08:40	73.3	73.3	73.3	81	67.1	0	2	248	0.00	29.970 
08:45	73.5	73.5	73.5	80	66.9	0	2	270	0.00	29.968 
08:50	73.7	73.7	73.7	80	67.1	1	5	270	0.00	29.968 
08:55	73.9	73.9	73.9	80	67.3	1	3	248	0.00	29.968 
09:00	73.9	73.9	73.9	80	67.3	1	5	270	0.00	29.964 
09:05	74.2	74.2	74.2	79	67.3	1	4	270	0.00	29.964 
09:10	74.6	74.6	74.6	79	67.6	1	4	248	0.00	29.964 
09:15	74.7	74.7	74.7	78	67.4	1	3	315	0.00	29.969 
09:20	74.9	74.9	74.9	78	67.6	1	3	315	0.00	29.969 
09:25	75.1	75.1	76.0	78	67.8	0	3	292	0.00	29.969 
09:30	75.3	75.3	76.2	78	68.0	1	3	292	0.00	29.965 
09:35	75.6	75.6	76.7	77	67.9	1	7	292	0.00	29.965 
09:40	75.8	75.8	77.0	77	68.1	1	4	248	0.00	29.965 
09:45	76.0	76.0	77.3	76	67.9	1	5	270	0.00	29.964 
09:50	76.5	76.5	78.0	76	68.4	0	2	270	0.00	29.964 
09:55	76.3	76.3	77.7	75	67.8	1	5	270	0.00	29.964 
10:00	76.0	76.0	77.4	75	67.5	2	6	292	0.00	29.964 
10:05	75.6	75.6	76.9	75	67.1	1	4	315	0.00	29.964 
10:10	75.6	75.6	76.8	76	67.5	1	4	315	0.00	29.964 
10:15	75.6	75.6	76.8	76	67.5	1	3	315	0.00	29.960 
10:20	75.6	75.6	76.8	76	67.5	0	3	292	0.00	29.960 
10:25	75.6	75.6	76.8	76	67.5	1	9	315	0.00	29.960 
10:30	75.4	75.4	76.5	76	67.3	1	4	292	0.00	29.961 
10:35	75.3	75.3	76.5	75	66.8	1	5	270	0.00	29.961 
10:40	75.3	75.3	76.4	76	67.2	1	2	270	0.00	29.961 
10:45	75.3	75.3	76.4	76	67.2	1	6	270	0.00	29.953 
10:50	75.4	75.4	76.4	77	67.7	1	4	315	0.00	29.953 
10:55	76.0	76.0	77.4	75	67.5	1	5	248	0.00	29.953 
11:00	76.3	76.3	77.7	75	67.8	1	4	248	0.00	29.947 
11:05	76.5	76.5	78.1	73	67.2	1	6	338	0.00	29.947 
11:10	76.5	76.5	78.1	73	67.2	1	4	248	0.00	29.947 
11:15	76.7	76.7	78.3	73	67.4	1	6	270	0.00	29.942 
11:20	77.2	77.2	79.0	73	67.9	1	5	270	0.00	29.942 
11:25	78.1	78.1	80.2	70	67.5	1	4	45	0.00	29.942 
11:30	78.5	78.5	80.6	68	67.0	1	5	270	0.00	29.942 
11:35	78.5	78.5	80.6	68	67.0	1	5	338	0.00	29.942 
11:40	78.3	78.3	80.4	69	67.3	1	4	270	0.00	29.942 
11:45	78.1	78.1	80.1	69	67.1	2	7	68	0.00	29.941 
11:50	78.1	78.1	80.1	68	66.7	2	7	270	0.00	29.941 
11:55	77.9	77.9	79.8	68	66.5	2	5	338	0.00	29.941 
12:00	78.1	78.1	80.1	69	67.1	1	5	270	0.00	29.940 
12:05	78.3	78.3	80.3	67	66.4	2	5	270	0.00	29.940 
12:10	78.6	78.6	80.7	67	66.7	2	7	292	0.00	29.940 
12:15	78.6	78.6	80.6	66	66.3	2	9	270	0.00	29.939 
12:20	78.3	78.3	80.2	66	66.0	2	5	292	0.00	29.939 
12:25	78.3	78.3	80.2	66	66.0	1	5	248	0.00	29.939 
12:30	78.1	78.1	80.0	67	66.2	1	5	292	0.00	29.937 
12:35	77.9	77.9	79.8	67	66.0	1	6	292	0.00	29.937 
12:40	77.9	77.9	79.8	67	66.0	1	3	315	0.00	29.937 
12:45	78.1	78.1	80.0	66	65.8	1	5	292	0.00	29.928 
12:50	78.1	78.1	80.0	66	65.8	2	5	270	0.00	29.928 
12:55	78.5	78.5	80.6	68	67.0	1	3	292	0.00	29.928 
13:00	79.2	79.2	81.4	66	66.8	1	4	22	0.00	29.927 
13:05	79.6	79.6	81.8	65	66.8	2	6	248	0.00	29.927 
13:10	79.8	79.8	82.0	64	66.5	2	7	270	0.00	29.927 
13:15	79.6	79.6	81.7	64	66.3	1	7	270	0.00	29.926 
13:20	79.0	79.0	81.0	64	65.8	2	5	292	0.00	29.926 
13:25	78.5	78.5	80.4	65	65.7	2	5	270	0.00	29.926 
13:30	78.3	78.3	80.3	68	66.8	1	5	248	0.00	29.927 
13:35	78.3	78.3	80.2	66	66.0	1	4	315	0.00	29.927 
13:40	78.5	78.5	80.4	65	65.7	1	5	270	0.00	29.927 
13:45	78.6	78.6	80.6	65	65.8	1	5	270	0.00	29.914 
13:50	79.0	79.0	81.0	65	66.2	1	3	270	0.00	29.914 
13:55	79.4	79.4	81.5	64	66.1	2	12	135	0.00	29.914 
14:00	79.8	79.8	82.0	64	66.5	2	9	292	0.00	29.911 
14:05	80.1	80.1	82.3	63	66.3	2	7	292	0.00	29.911 
14:10	80.3	80.3	82.4	62	66.1	2	8	22	0.00	29.911 
14:15	79.9	79.9	81.8	61	65.2	1	11	270	0.00	29.904 
14:20	79.6	79.6	81.5	62	65.4	2	5	270	0.00	29.904 
14:25	79.6	79.6	81.5	62	65.4	1	3	338	0.00	29.904 
14:30	79.6	79.6	81.5	62	65.4	1	3	315	0.00	29.897 
14:35	79.2	79.2	81.1	63	65.5	1	4	270	0.00	29.897 
14:40	79.0	79.0	80.8	62	64.8	1	5	292	0.00	29.897 
14:45	78.8	78.8	80.7	63	65.1	1	3	292	0.00	29.897 
14:50	78.8	78.8	80.7	63	65.1	2	9	292	0.00	29.897 
14:55	78.6	78.6	80.4	63	64.9	1	3	292	0.00	29.897 
15:00	78.6	78.6	80.5	64	65.4	1	3	45	0.00	29.894 
15:05	78.5	78.5	80.4	64	65.3	1	4	292	0.00	29.894 
15:10	78.5	78.5	80.3	63	64.8	1	5	292	0.00	29.894 
15:15	78.5	78.5	80.4	64	65.3	1	4	68	0.00	29.886 
15:20	78.6	78.6	80.5	64	65.4	1	8	68	0.00	29.886 
15:25	78.8	78.8	80.7	63	65.1	2	7	292	0.00	29.886 
15:30	78.8	78.8	80.7	63	65.1	1	4	292	0.00	29.880 
15:35	78.8	78.8	80.7	63	65.1	1	6	270	0.00	29.880 
15:40	78.8	78.8	80.7	64	65.6	1	4	248	0.00	29.880 
15:45	79.0	79.0	80.9	63	65.3	2	4	248	0.00	29.870 
15:50	79.0	79.0	81.0	65	66.2	2	7	270	0.00	29.870 
15:55	77.4	77.4	79.3	71	67.2	2	4	248	0.01	29.870 
16:00	76.1	76.1	77.5	75	67.6	1	6	270	0.00	29.873 
16:05	76.1	76.1	77.5	74	67.2	2	8	248	0.00	29.873 
16:10	76.1	76.1	77.5	74	67.2	1	5	248	0.00	29.873 
16:15	76.1	76.1	77.5	74	67.2	1	4	248	0.00	29.869 
16:20	76.3	76.3	77.8	73	67.0	1	6	248	0.00	29.869 
16:25	76.7	76.7	78.3	75	68.2	1	3	292	0.00	29.869 
16:30	77.0	77.0	78.7	74	68.1	1	3	225	0.00	29.855 
16:35	77.2	77.2	79.0	72	67.5	1	6	270	0.00	29.855 
16:40	77.2	77.2	79.0	70	66.6	2	5	270	0.00	29.855 
16:45	77.0	77.0	78.8	69	66.0	2	7	248	0.00	29.861 
16:50	76.8	76.8	78.5	70	66.3	2	5	270	0.00	29.861 
16:55	75.8	75.8	76.9	78	68.4	1	4	248	0.09	29.861 
17:00	74.0	74.0	74.0	82	68.1	1	5	292	0.22	29.885 
17:05	72.8	72.8	72.8	86	68.4	0	1	292	0.04	29.885 
17:10	72.7	72.7	72.7	88	68.9	0	3	248	0.00	29.885 
17:15	72.7	72.7	72.7	89	69.3	0	3	248	0.00	29.867 
17:20	72.8	72.8	72.8	90	69.7	0	1	248	0.00	29.867 
17:25	72.7	72.7	72.7	90	69.6	1	3	248	0.00	29.867 
17:30	72.5	72.5	72.5	91	69.7	1	3	248	0.00	29.871 
17:35	72.5	72.5	72.5	91	69.7	0	2	248	0.00	29.871 
17:40	72.5	72.5	72.5	91	69.7	0	2	248	0.00	29.871 
17:45	72.8	72.8	72.8	91	70.0	1	4	270	0.00	29.868 
17:50	73.3	73.3	73.3	92	70.8	1	7	270	0.00	29.868 
17:55	73.2	73.2	73.2	90	70.1	1	5	270	0.00	29.868 
18:00	73.2	73.2	73.2	90	70.1	1	12	248	0.00	29.867 
18:05	73.2	73.2	73.2	89	69.8	1	3	68	0.00	29.867 
18:10	73.5	73.5	73.5	88	69.7	1	6	315	0.00	29.867 
18:15	73.7	73.7	73.7	87	69.6	2	7	68	0.00	29.864 
18:20	73.9	73.9	73.9	85	69.1	1	5	270	0.00	29.864 
18:25	74.0	74.0	74.0	85	69.2	1	6	315	0.00	29.864 
18:30	74.2	74.2	74.2	84	69.0	1	5	270	0.00	29.861 
18:35	74.2	74.2	74.2	84	69.0	1	6	68	0.00	29.861 
18:40	74.2	74.2	74.2	83	68.7	1	5	270	0.00	29.861 
18:45	74.2	74.2	74.2	82	68.3	1	4	270	0.00	29.865 
18:50	74.2	74.2	74.2	82	68.3	1	5	270	0.00	29.865 
18:55	74.2	74.2	74.2	82	68.3	1	3	292	0.00	29.865 
19:00	74.2	74.2	74.2	82	68.3	1	5	292	0.00	29.862 
19:05	74.2	74.2	74.2	82	68.3	1	4	315	0.00	29.862 
19:10	74.0	74.0	74.0	81	67.8	2	6	270	0.00	29.862 
19:15	74.0	74.0	74.0	81	67.8	1	5	338	0.00	29.853 
19:20	74.0	74.0	74.0	81	67.8	2	5	270	0.00	29.853 
19:25	73.9	73.9	73.9	82	68.0	1	6	270	0.00	29.853 
19:30	73.7	73.7	73.7	83	68.2	1	4	338	0.00	29.846 
19:35	73.5	73.5	73.5	83	68.0	1	5	270	0.00	29.846 
19:40	73.3	73.3	73.3	83	67.8	1	4	292	0.00	29.846 
19:45	73.2	73.2	73.2	83	67.7	1	4	45	0.00	29.852 
19:50	73.2	73.2	73.2	83	67.7	2	7	90	0.00	29.852 
19:55	73.0	73.0	73.0	83	67.5	2	5	270	0.00	29.852 
20:00	73.0	73.0	73.0	83	67.5	1	4	270	0.00	29.846 
20:05	72.8	72.8	72.8	83	67.3	1	3	315	0.00	29.846 
20:10	72.7	72.7	72.7	84	67.6	1	4	315	0.00	29.846 
20:15	72.5	72.5	72.5	84	67.4	1	5	248	0.00	29.847 
20:20	72.5	72.5	72.5	84	67.4	0	2	292	0.00	29.847 
20:25	72.3	72.3	72.3	84	67.2	1	4	292	0.00	29.847 
20:30	72.1	72.1	72.1	84	67.0	1	3	248	0.00	29.853 
20:35	72.1	72.1	72.1	84	67.0	1	3	315	0.00	29.853 
20:40	72.0	72.0	72.0	84	66.9	0	3	315	0.00	29.853 
20:45	71.8	71.8	71.8	84	66.7	1	3	292	0.00	29.856 
20:50	71.8	71.8	71.8	84	66.7	1	3	292	0.00	29.856 
20:55	71.6	71.6	71.6	83	66.2	1	3	292	0.00	29.856 
21:00	71.8	71.8	71.8	82	66.0	1	3	292	0.00	29.855 
21:05	71.8	71.8	71.8	82	66.0	1	4	315	0.00	29.855 
21:10	71.8	71.8	71.8	82	66.0	1	4	270	0.00	29.855 
21:15	71.8	71.8	71.8	82	66.0	0	2	292	0.00	29.853 
21:20	71.8	71.8	71.8	82	66.0	1	3	292	0.00	29.853 
21:25	71.6	71.6	71.6	83	66.2	1	3	338	0.00	29.853 
21:30	71.6	71.6	71.6	83	66.2	0	3	270	0.00	29.853 
21:35	71.5	71.5	71.5	83	66.1	0	2	270	0.00	29.853 
21:40	71.5	71.5	71.5	84	66.4	0	3	270	0.00	29.853 
21:45	71.3	71.3	71.3	84	66.2	1	5	248	0.00	29.855 
21:50	71.3	71.3	71.3	84	66.2	0	3	248	0.00	29.855 
21:55	71.3	71.3	71.3	85	66.5	0	3	248	0.00	29.855 
22:00	71.3	71.3	71.3	85	66.5	0	2	248	0.00	29.862 
22:05	71.3	71.3	71.3	85	66.5	0	2	292	0.00	29.862 
22:10	71.3	71.3	71.3	85	66.5	0	2	270	0.00	29.862 
22:15	71.1	71.1	71.1	86	66.7	1	4	270	0.00	29.859 
22:20	71.1	71.1	71.1	86	66.7	1	4	292	0.00	29.859 
22:25	71.1	71.1	71.1	86	66.7	0	2	292	0.00	29.859 
22:30	70.9	70.9	70.9	86	66.5	0	2	292	0.00	29.867 
22:35	70.9	70.9	70.9	86	66.5	1	2	292	0.00	29.867 
22:40	70.9	70.9	70.9	86	66.5	1	4	315	0.00	29.867 
22:45	70.8	70.8	70.8	86	66.4	1	6	270	0.00	29.871 
22:50	70.8	70.8	70.8	86	66.4	1	3	292	0.00	29.871 
22:55	70.8	70.8	70.8	87	66.7	1	3	225	0.00	29.871 
23:00	70.6	70.6	70.6	87	66.5	0	2	248	0.00	29.873 
23:05	70.6	70.6	70.6	87	66.5	1	3	248	0.00	29.873 
23:10	70.6	70.6	70.6	87	66.5	0	2	248	0.00	29.873 
23:15	70.6	70.6	70.6	87	66.5	0	3	248	0.00	29.870 
23:20	70.4	70.4	70.4	87	66.3	0	4	248	0.00	29.870 
23:25	70.4	70.4	70.4	87	66.3	0	3	248	0.00	29.870 
23:30	70.6	70.6	70.6	87	66.5	1	4	270	0.00	29.869 
23:35	70.4	70.4	70.4	87	66.3	0	2	270	0.00	29.869 
23:40	70.4	70.4	70.4	87	66.3	1	4	270	0.00	29.869 
23:45	70.4	70.4	70.4	87	66.3	0	3	292	0.00	29.869 
23:50	70.4	70.4	70.4	87	66.3	1	5	292	0.00	29.869 
23:55	70.4	70.4	70.4	87	66.3	0	3	338	0.00	29.869 

CoCoRaHS
IN-AL-39
A2 Web Hosting
Creative Commons License
GoDaddy
search engine by freefind advanced

loaded 2018-11-15 05:52:55 • last modified 2010-11-18 10:43:29
Privacy PolicyDisclaimer
• wx.awcolley.com is powered by PmWiki v.2002016 •
• all content (unless otherwise noted) © 2018 A W Colley